sensor_id;sensor_type;location;lat;lon;timestamp;P1;durP1;ratioP1;P2;durP2;ratioP2
15317;SDS011;7759;52.528;13.346;2023-12-04T00:00:35;15.70;;;7.53;;
15317;SDS011;7759;52.528;13.346;2023-12-04T00:03:01;14.03;;;6.83;;
15317;SDS011;7759;52.528;13.346;2023-12-04T00:05:27;17.23;;;8.30;;
15317;SDS011;7759;52.528;13.346;2023-12-04T00:07:53;15.73;;;7.30;;
15317;SDS011;7759;52.528;13.346;2023-12-04T00:10:19;16.60;;;7.97;;
15317;SDS011;7759;52.528;13.346;2023-12-04T00:12:45;18.07;;;7.83;;
15317;SDS011;7759;52.528;13.346;2023-12-04T00:15:11;16.10;;;7.77;;
15317;SDS011;7759;52.528;13.346;2023-12-04T00:17:37;12.80;;;6.83;;
15317;SDS011;7759;52.528;13.346;2023-12-04T00:20:07;16.40;;;8.10;;
15317;SDS011;7759;52.528;13.346;2023-12-04T00:22:34;16.77;;;7.50;;
15317;SDS011;7759;52.528;13.346;2023-12-04T00:25:00;15.60;;;7.87;;
15317;SDS011;7759;52.528;13.346;2023-12-04T00:27:28;20.40;;;9.73;;
15317;SDS011;7759;52.528;13.346;2023-12-04T00:29:53;16.80;;;7.97;;
15317;SDS011;7759;52.528;13.346;2023-12-04T00:32:19;19.03;;;8.97;;
15317;SDS011;7759;52.528;13.346;2023-12-04T00:34:45;17.77;;;8.43;;
15317;SDS011;7759;52.528;13.346;2023-12-04T00:37:11;15.67;;;7.87;;
15317;SDS011;7759;52.528;13.346;2023-12-04T00:39:37;17.70;;;8.63;;
15317;SDS011;7759;52.528;13.346;2023-12-04T00:42:03;17.27;;;8.10;;
15317;SDS011;7759;52.528;13.346;2023-12-04T00:44:29;21.67;;;9.67;;
15317;SDS011;7759;52.528;13.346;2023-12-04T00:46:58;20.17;;;9.30;;
15317;SDS011;7759;52.528;13.346;2023-12-04T00:49:24;19.30;;;9.20;;
15317;SDS011;7759;52.528;13.346;2023-12-04T00:51:50;17.70;;;8.97;;
15317;SDS011;7759;52.528;13.346;2023-12-04T00:54:16;23.23;;;9.03;;
15317;SDS011;7759;52.528;13.346;2023-12-04T00:56:42;22.03;;;9.77;;
15317;SDS011;7759;52.528;13.346;2023-12-04T00:59:08;19.80;;;8.30;;
15317;SDS011;7759;52.528;13.346;2023-12-04T01:01:37;20.23;;;9.57;;
15317;SDS011;7759;52.528;13.346;2023-12-04T01:04:03;19.10;;;8.13;;
15317;SDS011;7759;52.528;13.346;2023-12-04T01:06:29;17.73;;;8.47;;
15317;SDS011;7759;52.528;13.346;2023-12-04T01:08:55;20.17;;;8.70;;
15317;SDS011;7759;52.528;13.346;2023-12-04T01:11:21;19.90;;;8.80;;
15317;SDS011;7759;52.528;13.346;2023-12-04T01:13:48;16.63;;;9.17;;
15317;SDS011;7759;52.528;13.346;2023-12-04T01:16:14;18.30;;;9.00;;
15317;SDS011;7759;52.528;13.346;2023-12-04T01:18:40;16.53;;;8.27;;
15317;SDS011;7759;52.528;13.346;2023-12-04T01:21:07;19.53;;;9.17;;
15317;SDS011;7759;52.528;13.346;2023-12-04T01:23:36;22.10;;;9.27;;
15317;SDS011;7759;52.528;13.346;2023-12-04T01:26:02;20.20;;;10.47;;
15317;SDS011;7759;52.528;13.346;2023-12-04T01:28:28;19.23;;;10.03;;
15317;SDS011;7759;52.528;13.346;2023-12-04T01:30:54;18.93;;;9.43;;
15317;SDS011;7759;52.528;13.346;2023-12-04T01:33:20;22.47;;;9.90;;
15317;SDS011;7759;52.528;13.346;2023-12-04T01:35:46;17.33;;;8.67;;
15317;SDS011;7759;52.528;13.346;2023-12-04T01:38:12;19.43;;;9.17;;
15317;SDS011;7759;52.528;13.346;2023-12-04T01:40:38;18.43;;;9.33;;
15317;SDS011;7759;52.528;13.346;2023-12-04T01:43:04;16.83;;;9.30;;
15317;SDS011;7759;52.528;13.346;2023-12-04T01:45:30;24.13;;;9.87;;
15317;SDS011;7759;52.528;13.346;2023-12-04T01:47:56;25.67;;;10.57;;
15317;SDS011;7759;52.528;13.346;2023-12-04T01:50:22;20.67;;;8.67;;
15317;SDS011;7759;52.528;13.346;2023-12-04T01:52:48;24.50;;;10.20;;
15317;SDS011;7759;52.528;13.346;2023-12-04T01:55:14;20.30;;;9.70;;
15317;SDS011;7759;52.528;13.346;2023-12-04T01:57:40;18.47;;;8.73;;
15317;SDS011;7759;52.528;13.346;2023-12-04T02:00:07;18.63;;;8.90;;
15317;SDS011;7759;52.528;13.346;2023-12-04T02:02:37;20.40;;;9.23;;
15317;SDS011;7759;52.528;13.346;2023-12-04T02:05:04;22.70;;;9.87;;
15317;SDS011;7759;52.528;13.346;2023-12-04T02:07:31;18.47;;;8.50;;
15317;SDS011;7759;52.528;13.346;2023-12-04T02:09:57;21.57;;;9.07;;
15317;SDS011;7759;52.528;13.346;2023-12-04T02:12:23;20.70;;;9.97;;
15317;SDS011;7759;52.528;13.346;2023-12-04T02:14:49;19.23;;;9.50;;
15317;SDS011;7759;52.528;13.346;2023-12-04T02:17:15;16.20;;;8.17;;
15317;SDS011;7759;52.528;13.346;2023-12-04T02:19:42;21.30;;;9.70;;
15317;SDS011;7759;52.528;13.346;2023-12-04T02:22:08;19.37;;;9.27;;
15317;SDS011;7759;52.528;13.346;2023-12-04T02:24:34;19.27;;;9.30;;
15317;SDS011;7759;52.528;13.346;2023-12-04T02:27:20;24.83;;;10.60;;
15317;SDS011;7759;52.528;13.346;2023-12-04T02:29:51;19.43;;;9.47;;
15317;SDS011;7759;52.528;13.346;2023-12-04T02:32:18;17.87;;;8.37;;
15317;SDS011;7759;52.528;13.346;2023-12-04T02:34:45;15.87;;;9.07;;
15317;SDS011;7759;52.528;13.346;2023-12-04T02:37:13;18.07;;;8.80;;
15317;SDS011;7759;52.528;13.346;2023-12-04T02:39:39;18.87;;;8.53;;
15317;SDS011;7759;52.528;13.346;2023-12-04T02:42:05;20.70;;;9.67;;
15317;SDS011;7759;52.528;13.346;2023-12-04T02:44:31;23.43;;;10.63;;
15317;SDS011;7759;52.528;13.346;2023-12-04T02:46:57;22.63;;;10.37;;
15317;SDS011;7759;52.528;13.346;2023-12-04T02:49:23;22.03;;;9.60;;
15317;SDS011;7759;52.528;13.346;2023-12-04T02:51:49;25.87;;;9.97;;
15317;SDS011;7759;52.528;13.346;2023-12-04T02:54:15;21.37;;;9.20;;
15317;SDS011;7759;52.528;13.346;2023-12-04T02:56:41;25.67;;;10.43;;
15317;SDS011;7759;52.528;13.346;2023-12-04T02:59:07;20.80;;;9.13;;
15317;SDS011;7759;52.528;13.346;2023-12-04T03:01:33;19.03;;;9.57;;
15317;SDS011;7759;52.528;13.346;2023-12-04T03:03:59;19.80;;;9.60;;
15317;SDS011;7759;52.528;13.346;2023-12-04T03:06:24;21.67;;;8.00;;
15317;SDS011;7759;52.528;13.346;2023-12-04T03:08:50;16.70;;;8.43;;
15317;SDS011;7759;52.528;13.346;2023-12-04T03:11:16;20.47;;;9.77;;
15317;SDS011;7759;52.528;13.346;2023-12-04T03:13:42;16.97;;;7.90;;
15317;SDS011;7759;52.528;13.346;2023-12-04T03:16:15;22.23;;;9.93;;
15317;SDS011;7759;52.528;13.346;2023-12-04T03:18:41;22.17;;;9.33;;
15317;SDS011;7759;52.528;13.346;2023-12-04T03:21:07;21.50;;;9.30;;
15317;SDS011;7759;52.528;13.346;2023-12-04T03:23:33;21.70;;;9.60;;
15317;SDS011;7759;52.528;13.346;2023-12-04T03:25:59;20.90;;;9.57;;
15317;SDS011;7759;52.528;13.346;2023-12-04T03:28:25;22.20;;;9.23;;
15317;SDS011;7759;52.528;13.346;2023-12-04T03:30:51;21.03;;;10.50;;
15317;SDS011;7759;52.528;13.346;2023-12-04T03:33:17;18.40;;;8.57;;
15317;SDS011;7759;52.528;13.346;2023-12-04T03:35:43;19.90;;;9.37;;
15317;SDS011;7759;52.528;13.346;2023-12-04T03:38:09;16.90;;;8.40;;
15317;SDS011;7759;52.528;13.346;2023-12-04T03:40:35;21.10;;;8.70;;
15317;SDS011;7759;52.528;13.346;2023-12-04T03:43:01;21.47;;;9.63;;
15317;SDS011;7759;52.528;13.346;2023-12-04T03:45:26;22.40;;;10.67;;
15317;SDS011;7759;52.528;13.346;2023-12-04T03:47:52;25.03;;;9.67;;
15317;SDS011;7759;52.528;13.346;2023-12-04T03:50:18;21.07;;;10.13;;
15317;SDS011;7759;52.528;13.346;2023-12-04T03:52:44;24.03;;;9.97;;
15317;SDS011;7759;52.528;13.346;2023-12-04T03:55:10;18.63;;;9.37;;
15317;SDS011;7759;52.528;13.346;2023-12-04T03:57:36;17.97;;;8.53;;
15317;SDS011;7759;52.528;13.346;2023-12-04T04:00:02;19.23;;;9.60;;
15317;SDS011;7759;52.528;13.346;2023-12-04T04:02:28;18.57;;;9.63;;
15317;SDS011;7759;52.528;13.346;2023-12-04T04:04:54;20.40;;;9.50;;
15317;SDS011;7759;52.528;13.346;2023-12-04T04:07:20;18.53;;;8.10;;
15317;SDS011;7759;52.528;13.346;2023-12-04T04:09:46;21.83;;;9.33;;
15317;SDS011;7759;52.528;13.346;2023-12-04T04:12:12;15.80;;;7.57;;
15317;SDS011;7759;52.528;13.346;2023-12-04T04:14:38;19.13;;;9.30;;
15317;SDS011;7759;52.528;13.346;2023-12-04T04:17:04;17.73;;;9.00;;
15317;SDS011;7759;52.528;13.346;2023-12-04T04:19:30;21.03;;;9.97;;
15317;SDS011;7759;52.528;13.346;2023-12-04T04:21:56;22.60;;;10.07;;
15317;SDS011;7759;52.528;13.346;2023-12-04T04:24:22;16.17;;;8.60;;
15317;SDS011;7759;52.528;13.346;2023-12-04T04:26:48;18.57;;;8.50;;
15317;SDS011;7759;52.528;13.346;2023-12-04T04:29:15;20.03;;;8.37;;
15317;SDS011;7759;52.528;13.346;2023-12-04T04:31:41;23.43;;;10.60;;
15317;SDS011;7759;52.528;13.346;2023-12-04T04:34:06;15.83;;;7.97;;
15317;SDS011;7759;52.528;13.346;2023-12-04T04:36:32;16.67;;;8.80;;
15317;SDS011;7759;52.528;13.346;2023-12-04T04:39:00;18.90;;;9.03;;
15317;SDS011;7759;52.528;13.346;2023-12-04T04:41:26;14.83;;;7.67;;
15317;SDS011;7759;52.528;13.346;2023-12-04T04:43:52;17.13;;;8.33;;
15317;SDS011;7759;52.528;13.346;2023-12-04T04:46:18;16.90;;;8.03;;
15317;SDS011;7759;52.528;13.346;2023-12-04T04:48:44;18.70;;;7.77;;
15317;SDS011;7759;52.528;13.346;2023-12-04T04:51:10;20.67;;;9.70;;
15317;SDS011;7759;52.528;13.346;2023-12-04T04:53:36;15.97;;;8.10;;
15317;SDS011;7759;52.528;13.346;2023-12-04T04:56:02;19.17;;;7.83;;
15317;SDS011;7759;52.528;13.346;2023-12-04T04:58:28;19.20;;;8.83;;
15317;SDS011;7759;52.528;13.346;2023-12-04T05:00:53;18.20;;;8.90;;
15317;SDS011;7759;52.528;13.346;2023-12-04T05:03:19;19.37;;;8.20;;
15317;SDS011;7759;52.528;13.346;2023-12-04T05:05:45;23.23;;;9.30;;
15317;SDS011;7759;52.528;13.346;2023-12-04T05:08:11;17.90;;;9.00;;
15317;SDS011;7759;52.528;13.346;2023-12-04T05:10:38;20.83;;;8.50;;
15317;SDS011;7759;52.528;13.346;2023-12-04T05:13:04;15.27;;;7.57;;
15317;SDS011;7759;52.528;13.346;2023-12-04T05:15:30;21.60;;;8.83;;
15317;SDS011;7759;52.528;13.346;2023-12-04T05:17:56;17.53;;;8.93;;
15317;SDS011;7759;52.528;13.346;2023-12-04T05:20:22;16.20;;;7.57;;
15317;SDS011;7759;52.528;13.346;2023-12-04T05:22:48;20.93;;;9.10;;
15317;SDS011;7759;52.528;13.346;2023-12-04T05:25:14;21.17;;;9.53;;
15317;SDS011;7759;52.528;13.346;2023-12-04T05:27:40;23.23;;;9.80;;
15317;SDS011;7759;52.528;13.346;2023-12-04T05:30:06;20.00;;;9.43;;
15317;SDS011;7759;52.528;13.346;2023-12-04T05:32:32;20.10;;;9.17;;
15317;SDS011;7759;52.528;13.346;2023-12-04T05:34:59;22.50;;;9.90;;
15317;SDS011;7759;52.528;13.346;2023-12-04T05:37:24;15.70;;;8.37;;
15317;SDS011;7759;52.528;13.346;2023-12-04T05:39:50;20.67;;;9.13;;
15317;SDS011;7759;52.528;13.346;2023-12-04T05:42:16;19.03;;;8.40;;
15317;SDS011;7759;52.528;13.346;2023-12-04T05:44:42;14.83;;;7.70;;
15317;SDS011;7759;52.528;13.346;2023-12-04T05:47:08;18.13;;;8.20;;
15317;SDS011;7759;52.528;13.346;2023-12-04T05:49:34;23.10;;;8.93;;
15317;SDS011;7759;52.528;13.346;2023-12-04T05:52:00;19.63;;;9.10;;
15317;SDS011;7759;52.528;13.346;2023-12-04T05:54:26;18.03;;;9.00;;
15317;SDS011;7759;52.528;13.346;2023-12-04T05:56:52;21.60;;;8.93;;
15317;SDS011;7759;52.528;13.346;2023-12-04T05:59:18;18.73;;;8.33;;
15317;SDS011;7759;52.528;13.346;2023-12-04T06:01:44;21.57;;;7.80;;
15317;SDS011;7759;52.528;13.346;2023-12-04T06:04:13;15.93;;;8.17;;
15317;SDS011;7759;52.528;13.346;2023-12-04T06:06:39;16.77;;;8.00;;
15317;SDS011;7759;52.528;13.346;2023-12-04T06:09:05;17.87;;;8.33;;
15317;SDS011;7759;52.528;13.346;2023-12-04T06:11:31;22.80;;;10.23;;
15317;SDS011;7759;52.528;13.346;2023-12-04T06:13:57;17.37;;;8.67;;
15317;SDS011;7759;52.528;13.346;2023-12-04T06:16:23;14.97;;;7.70;;
15317;SDS011;7759;52.528;13.346;2023-12-04T06:18:49;20.03;;;8.70;;
15317;SDS011;7759;52.528;13.346;2023-12-04T06:21:15;25.03;;;10.37;;
15317;SDS011;7759;52.528;13.346;2023-12-04T06:23:41;17.03;;;8.40;;
15317;SDS011;7759;52.528;13.346;2023-12-04T06:26:07;18.43;;;8.93;;
15317;SDS011;7759;52.528;13.346;2023-12-04T06:28:33;26.07;;;10.53;;
15317;SDS011;7759;52.528;13.346;2023-12-04T06:30:59;24.07;;;9.60;;
15317;SDS011;7759;52.528;13.346;2023-12-04T06:33:26;18.83;;;8.80;;
15317;SDS011;7759;52.528;13.346;2023-12-04T06:35:52;18.53;;;8.13;;
15317;SDS011;7759;52.528;13.346;2023-12-04T06:38:18;19.67;;;9.17;;
15317;SDS011;7759;52.528;13.346;2023-12-04T06:40:44;18.67;;;9.03;;
15317;SDS011;7759;52.528;13.346;2023-12-04T06:43:10;17.10;;;8.00;;
15317;SDS011;7759;52.528;13.346;2023-12-04T06:45:37;15.67;;;7.60;;
15317;SDS011;7759;52.528;13.346;2023-12-04T06:48:04;20.57;;;9.00;;
15317;SDS011;7759;52.528;13.346;2023-12-04T06:50:30;21.23;;;9.83;;
15317;SDS011;7759;52.528;13.346;2023-12-04T06:52:56;17.77;;;9.17;;
15317;SDS011;7759;52.528;13.346;2023-12-04T06:55:23;17.30;;;8.13;;
15317;SDS011;7759;52.528;13.346;2023-12-04T06:57:49;18.00;;;7.83;;
15317;SDS011;7759;52.528;13.346;2023-12-04T07:00:15;18.60;;;9.03;;
15317;SDS011;7759;52.528;13.346;2023-12-04T07:02:41;14.50;;;7.63;;
15317;SDS011;7759;52.528;13.346;2023-12-04T07:05:07;18.83;;;8.57;;
15317;SDS011;7759;52.528;13.346;2023-12-04T07:07:33;23.57;;;9.83;;
15317;SDS011;7759;52.528;13.346;2023-12-04T07:09:59;17.47;;;8.27;;
15317;SDS011;7759;52.528;13.346;2023-12-04T07:12:25;18.67;;;7.70;;
15317;SDS011;7759;52.528;13.346;2023-12-04T07:14:51;17.87;;;7.80;;
15317;SDS011;7759;52.528;13.346;2023-12-04T07:17:17;19.90;;;8.83;;
15317;SDS011;7759;52.528;13.346;2023-12-04T07:19:43;20.23;;;7.97;;
15317;SDS011;7759;52.528;13.346;2023-12-04T07:22:09;17.53;;;8.00;;
15317;SDS011;7759;52.528;13.346;2023-12-04T07:24:35;18.70;;;8.07;;
15317;SDS011;7759;52.528;13.346;2023-12-04T07:27:01;18.73;;;8.60;;
15317;SDS011;7759;52.528;13.346;2023-12-04T07:29:27;18.63;;;7.60;;
15317;SDS011;7759;52.528;13.346;2023-12-04T07:31:53;17.27;;;8.30;;
15317;SDS011;7759;52.528;13.346;2023-12-04T07:34:19;18.20;;;7.43;;
15317;SDS011;7759;52.528;13.346;2023-12-04T07:36:45;16.00;;;6.63;;
15317;SDS011;7759;52.528;13.346;2023-12-04T07:39:13;16.10;;;7.97;;
15317;SDS011;7759;52.528;13.346;2023-12-04T07:41:39;17.03;;;6.83;;
15317;SDS011;7759;52.528;13.346;2023-12-04T07:44:05;15.60;;;7.10;;
15317;SDS011;7759;52.528;13.346;2023-12-04T07:46:31;15.93;;;7.67;;
15317;SDS011;7759;52.528;13.346;2023-12-04T07:48:57;17.87;;;8.03;;
15317;SDS011;7759;52.528;13.346;2023-12-04T07:51:23;14.50;;;6.93;;
15317;SDS011;7759;52.528;13.346;2023-12-04T07:53:49;22.80;;;8.40;;
15317;SDS011;7759;52.528;13.346;2023-12-04T07:56:15;18.37;;;7.73;;
15317;SDS011;7759;52.528;13.346;2023-12-04T07:58:41;17.07;;;7.93;;
15317;SDS011;7759;52.528;13.346;2023-12-04T08:01:07;17.27;;;7.73;;
15317;SDS011;7759;52.528;13.346;2023-12-04T08:03:33;17.80;;;7.77;;
15317;SDS011;7759;52.528;13.346;2023-12-04T08:05:59;22.37;;;8.77;;
15317;SDS011;7759;52.528;13.346;2023-12-04T08:08:25;16.70;;;7.70;;
15317;SDS011;7759;52.528;13.346;2023-12-04T08:10:51;17.30;;;7.90;;
15317;SDS011;7759;52.528;13.346;2023-12-04T08:13:17;24.50;;;8.80;;
15317;SDS011;7759;52.528;13.346;2023-12-04T08:15:43;15.93;;;7.50;;
15317;SDS011;7759;52.528;13.346;2023-12-04T08:18:09;16.43;;;7.53;;
15317;SDS011;7759;52.528;13.346;2023-12-04T08:20:35;18.73;;;7.57;;
15317;SDS011;7759;52.528;13.346;2023-12-04T08:23:01;18.57;;;8.40;;
15317;SDS011;7759;52.528;13.346;2023-12-04T08:25:27;17.50;;;8.00;;
15317;SDS011;7759;52.528;13.346;2023-12-04T08:27:54;16.00;;;6.93;;
15317;SDS011;7759;52.528;13.346;2023-12-04T08:30:20;15.93;;;7.20;;
15317;SDS011;7759;52.528;13.346;2023-12-04T08:32:47;21.20;;;8.70;;
15317;SDS011;7759;52.528;13.346;2023-12-04T08:35:13;16.27;;;7.07;;
15317;SDS011;7759;52.528;13.346;2023-12-04T08:37:39;20.30;;;9.00;;
15317;SDS011;7759;52.528;13.346;2023-12-04T08:40:05;15.63;;;7.60;;
15317;SDS011;7759;52.528;13.346;2023-12-04T08:42:34;17.03;;;7.00;;
15317;SDS011;7759;52.528;13.346;2023-12-04T08:45:00;15.73;;;7.33;;
15317;SDS011;7759;52.528;13.346;2023-12-04T08:47:26;13.20;;;6.40;;
15317;SDS011;7759;52.528;13.346;2023-12-04T08:49:52;16.90;;;7.63;;
15317;SDS011;7759;52.528;13.346;2023-12-04T08:52:18;15.67;;;7.03;;
15317;SDS011;7759;52.528;13.346;2023-12-04T08:54:44;13.70;;;6.70;;
15317;SDS011;7759;52.528;13.346;2023-12-04T08:57:10;19.80;;;7.97;;
15317;SDS011;7759;52.528;13.346;2023-12-04T08:59:36;17.97;;;7.90;;
15317;SDS011;7759;52.528;13.346;2023-12-04T09:02:02;16.90;;;8.30;;
15317;SDS011;7759;52.528;13.346;2023-12-04T09:04:29;16.23;;;7.27;;
15317;SDS011;7759;52.528;13.346;2023-12-04T09:06:55;17.23;;;7.93;;
15317;SDS011;7759;52.528;13.346;2023-12-04T09:09:21;16.70;;;6.93;;
15317;SDS011;7759;52.528;13.346;2023-12-04T09:11:47;17.13;;;7.57;;
15317;SDS011;7759;52.528;13.346;2023-12-04T09:14:13;18.47;;;7.17;;
15317;SDS011;7759;52.528;13.346;2023-12-04T09:16:39;16.73;;;7.07;;
15317;SDS011;7759;52.528;13.346;2023-12-04T09:19:05;13.03;;;6.60;;
15317;SDS011;7759;52.528;13.346;2023-12-04T09:21:31;12.57;;;6.30;;
15317;SDS011;7759;52.528;13.346;2023-12-04T09:23:57;18.40;;;6.50;;
15317;SDS011;7759;52.528;13.346;2023-12-04T09:26:23;18.23;;;8.87;;
15317;SDS011;7759;52.528;13.346;2023-12-04T09:28:49;15.27;;;7.30;;
15317;SDS011;7759;52.528;13.346;2023-12-04T09:31:15;19.80;;;7.93;;
15317;SDS011;7759;52.528;13.346;2023-12-04T09:33:43;16.37;;;7.13;;
15317;SDS011;7759;52.528;13.346;2023-12-04T09:36:09;18.60;;;7.57;;
15317;SDS011;7759;52.528;13.346;2023-12-04T09:38:35;16.30;;;7.53;;
15317;SDS011;7759;52.528;13.346;2023-12-04T09:41:01;14.70;;;7.20;;
15317;SDS011;7759;52.528;13.346;2023-12-04T09:43:31;18.63;;;7.47;;
15317;SDS011;7759;52.528;13.346;2023-12-04T09:45:57;17.50;;;6.53;;
15317;SDS011;7759;52.528;13.346;2023-12-04T09:48:24;15.10;;;6.70;;
15317;SDS011;7759;52.528;13.346;2023-12-04T09:50:51;17.07;;;7.20;;
15317;SDS011;7759;52.528;13.346;2023-12-04T09:53:17;14.13;;;6.60;;
15317;SDS011;7759;52.528;13.346;2023-12-04T09:55:44;17.87;;;7.63;;
15317;SDS011;7759;52.528;13.346;2023-12-04T09:58:10;14.70;;;6.63;;
15317;SDS011;7759;52.528;13.346;2023-12-04T10:00:39;15.83;;;7.53;;
15317;SDS011;7759;52.528;13.346;2023-12-04T10:03:06;15.37;;;7.33;;
15317;SDS011;7759;52.528;13.346;2023-12-04T10:05:32;16.97;;;7.60;;
15317;SDS011;7759;52.528;13.346;2023-12-04T10:07:58;13.63;;;6.43;;
15317;SDS011;7759;52.528;13.346;2023-12-04T10:10:24;19.80;;;8.20;;
15317;SDS011;7759;52.528;13.346;2023-12-04T10:12:50;17.10;;;7.73;;
15317;SDS011;7759;52.528;13.346;2023-12-04T10:15:16;17.27;;;7.57;;
15317;SDS011;7759;52.528;13.346;2023-12-04T10:17:42;14.67;;;7.07;;
15317;SDS011;7759;52.528;13.346;2023-12-04T10:20:09;14.70;;;6.93;;
15317;SDS011;7759;52.528;13.346;2023-12-04T10:23:00;15.00;;;7.13;;
15317;SDS011;7759;52.528;13.346;2023-12-04T10:25:29;12.90;;;6.20;;
15317;SDS011;7759;52.528;13.346;2023-12-04T10:28:06;14.43;;;7.00;;
15317;SDS011;7759;52.528;13.346;2023-12-04T10:30:33;12.07;;;7.00;;
15317;SDS011;7759;52.528;13.346;2023-12-04T10:33:00;12.13;;;6.00;;
15317;SDS011;7759;52.528;13.346;2023-12-04T10:35:30;13.07;;;6.80;;
15317;SDS011;7759;52.528;13.346;2023-12-04T10:37:56;16.23;;;6.77;;
15317;SDS011;7759;52.528;13.346;2023-12-04T10:40:26;14.53;;;6.93;;
15317;SDS011;7759;52.528;13.346;2023-12-04T10:43:09;14.70;;;6.53;;
15317;SDS011;7759;52.528;13.346;2023-12-04T10:45:39;14.93;;;6.97;;
15317;SDS011;7759;52.528;13.346;2023-12-04T10:48:06;14.97;;;7.07;;
15317;SDS011;7759;52.528;13.346;2023-12-04T10:50:35;14.17;;;6.77;;
15317;SDS011;7759;52.528;13.346;2023-12-04T10:53:03;14.73;;;6.97;;
15317;SDS011;7759;52.528;13.346;2023-12-04T10:55:29;16.03;;;7.37;;
15317;SDS011;7759;52.528;13.346;2023-12-04T10:57:55;15.47;;;6.57;;
15317;SDS011;7759;52.528;13.346;2023-12-04T11:00:21;15.93;;;6.60;;
15317;SDS011;7759;52.528;13.346;2023-12-04T11:02:47;12.33;;;5.40;;
15317;SDS011;7759;52.528;13.346;2023-12-04T11:05:15;14.87;;;6.67;;
15317;SDS011;7759;52.528;13.346;2023-12-04T11:08:05;11.00;;;5.50;;
15317;SDS011;7759;52.528;13.346;2023-12-04T11:10:33;13.63;;;6.20;;
15317;SDS011;7759;52.528;13.346;2023-12-04T11:13:00;15.40;;;7.27;;
15317;SDS011;7759;52.528;13.346;2023-12-04T11:15:29;15.07;;;6.90;;
15317;SDS011;7759;52.528;13.346;2023-12-04T11:17:59;14.37;;;6.80;;
15317;SDS011;7759;52.528;13.346;2023-12-04T11:20:27;13.63;;;6.37;;
15317;SDS011;7759;52.528;13.346;2023-12-04T11:22:53;10.73;;;4.93;;
15317;SDS011;7759;52.528;13.346;2023-12-04T11:25:19;14.20;;;6.50;;
15317;SDS011;7759;52.528;13.346;2023-12-04T11:27:48;13.80;;;6.13;;
15317;SDS011;7759;52.528;13.346;2023-12-04T11:30:14;12.83;;;6.23;;
15317;SDS011;7759;52.528;13.346;2023-12-04T11:32:44;12.87;;;6.17;;
15317;SDS011;7759;52.528;13.346;2023-12-04T11:35:17;12.90;;;5.90;;
15317;SDS011;7759;52.528;13.346;2023-12-04T11:37:43;12.63;;;6.23;;
15317;SDS011;7759;52.528;13.346;2023-12-04T11:40:12;12.47;;;6.33;;
15317;SDS011;7759;52.528;13.346;2023-12-04T11:42:39;10.43;;;5.07;;
15317;SDS011;7759;52.528;13.346;2023-12-04T11:45:05;12.23;;;5.57;;
15317;SDS011;7759;52.528;13.346;2023-12-04T11:47:48;12.80;;;5.97;;
15317;SDS011;7759;52.528;13.346;2023-12-04T11:50:14;10.43;;;5.87;;
15317;SDS011;7759;52.528;13.346;2023-12-04T11:52:40;13.63;;;5.60;;
15317;SDS011;7759;52.528;13.346;2023-12-04T11:55:07;11.73;;;6.20;;
15317;SDS011;7759;52.528;13.346;2023-12-04T11:57:39;10.70;;;5.50;;
15317;SDS011;7759;52.528;13.346;2023-12-04T12:00:08;12.17;;;5.60;;
15317;SDS011;7759;52.528;13.346;2023-12-04T12:02:36;13.20;;;6.00;;
15317;SDS011;7759;52.528;13.346;2023-12-04T12:05:03;12.90;;;5.73;;
15317;SDS011;7759;52.528;13.346;2023-12-04T12:07:29;12.47;;;5.53;;
15317;SDS011;7759;52.528;13.346;2023-12-04T12:09:57;11.47;;;5.77;;
15317;SDS011;7759;52.528;13.346;2023-12-04T12:12:23;12.03;;;5.57;;
15317;SDS011;7759;52.528;13.346;2023-12-04T12:14:50;11.33;;;5.53;;
15317;SDS011;7759;52.528;13.346;2023-12-04T12:17:16;12.70;;;6.60;;
15317;SDS011;7759;52.528;13.346;2023-12-04T12:19:42;13.30;;;6.37;;
15317;SDS011;7759;52.528;13.346;2023-12-04T12:22:08;13.93;;;6.53;;
15317;SDS011;7759;52.528;13.346;2023-12-04T12:24:34;13.73;;;6.13;;
15317;SDS011;7759;52.528;13.346;2023-12-04T12:27:00;11.13;;;5.83;;
15317;SDS011;7759;52.528;13.346;2023-12-04T12:29:27;11.27;;;5.23;;
15317;SDS011;7759;52.528;13.346;2023-12-04T12:31:53;15.33;;;6.20;;
15317;SDS011;7759;52.528;13.346;2023-12-04T12:34:19;13.77;;;5.93;;
15317;SDS011;7759;52.528;13.346;2023-12-04T12:36:45;11.93;;;5.20;;
15317;SDS011;7759;52.528;13.346;2023-12-04T12:39:12;13.43;;;6.63;;
15317;SDS011;7759;52.528;13.346;2023-12-04T12:41:38;9.73;;;5.43;;
15317;SDS011;7759;52.528;13.346;2023-12-04T12:44:04;11.77;;;5.60;;
15317;SDS011;7759;52.528;13.346;2023-12-04T12:46:30;11.83;;;5.83;;
15317;SDS011;7759;52.528;13.346;2023-12-04T12:48:56;10.97;;;5.47;;
15317;SDS011;7759;52.528;13.346;2023-12-04T12:51:23;14.57;;;6.00;;
15317;SDS011;7759;52.528;13.346;2023-12-04T12:53:49;12.40;;;6.20;;
15317;SDS011;7759;52.528;13.346;2023-12-04T12:56:16;11.97;;;5.20;;
15317;SDS011;7759;52.528;13.346;2023-12-04T12:58:42;11.73;;;5.97;;
15317;SDS011;7759;52.528;13.346;2023-12-04T13:01:11;11.00;;;5.60;;
15317;SDS011;7759;52.528;13.346;2023-12-04T13:03:37;12.43;;;6.00;;
15317;SDS011;7759;52.528;13.346;2023-12-04T13:06:03;11.50;;;5.60;;
15317;SDS011;7759;52.528;13.346;2023-12-04T13:08:30;12.90;;;5.87;;
15317;SDS011;7759;52.528;13.346;2023-12-04T13:10:56;11.90;;;6.17;;
15317;SDS011;7759;52.528;13.346;2023-12-04T13:13:23;13.27;;;5.90;;
15317;SDS011;7759;52.528;13.346;2023-12-04T13:15:49;11.03;;;5.47;;
15317;SDS011;7759;52.528;13.346;2023-12-04T13:18:15;14.30;;;6.53;;
15317;SDS011;7759;52.528;13.346;2023-12-04T13:20:41;9.47;;;5.50;;
15317;SDS011;7759;52.528;13.346;2023-12-04T13:23:08;9.53;;;5.07;;
15317;SDS011;7759;52.528;13.346;2023-12-04T13:25:34;11.60;;;5.97;;
15317;SDS011;7759;52.528;13.346;2023-12-04T13:28:00;10.57;;;4.53;;
15317;SDS011;7759;52.528;13.346;2023-12-04T13:30:25;11.97;;;6.00;;
15317;SDS011;7759;52.528;13.346;2023-12-04T13:32:51;10.13;;;4.93;;
15317;SDS011;7759;52.528;13.346;2023-12-04T13:35:17;14.77;;;6.20;;
15317;SDS011;7759;52.528;13.346;2023-12-04T13:37:43;12.03;;;6.00;;
15317;SDS011;7759;52.528;13.346;2023-12-04T13:40:09;11.13;;;5.87;;
15317;SDS011;7759;52.528;13.346;2023-12-04T13:42:40;12.10;;;5.67;;
15317;SDS011;7759;52.528;13.346;2023-12-04T13:45:25;11.67;;;5.73;;
15317;SDS011;7759;52.528;13.346;2023-12-04T13:47:53;10.03;;;5.43;;
15317;SDS011;7759;52.528;13.346;2023-12-04T13:50:18;13.53;;;6.00;;
15317;SDS011;7759;52.528;13.346;2023-12-04T13:52:45;14.10;;;7.07;;
15317;SDS011;7759;52.528;13.346;2023-12-04T13:55:20;10.87;;;5.60;;
15317;SDS011;7759;52.528;13.346;2023-12-04T13:57:55;16.80;;;7.10;;
15317;SDS011;7759;52.528;13.346;2023-12-04T14:00:35;14.13;;;6.20;;
15317;SDS011;7759;52.528;13.346;2023-12-04T14:03:01;13.83;;;6.17;;
15317;SDS011;7759;52.528;13.346;2023-12-04T14:05:31;13.13;;;6.53;;
15317;SDS011;7759;52.528;13.346;2023-12-04T14:07:58;9.50;;;4.93;;
15317;SDS011;7759;52.528;13.346;2023-12-04T14:10:24;12.57;;;5.93;;
15317;SDS011;7759;52.528;13.346;2023-12-04T14:12:54;18.87;;;9.47;;
15317;SDS011;7759;52.528;13.346;2023-12-04T14:15:20;16.60;;;7.03;;
15317;SDS011;7759;52.528;13.346;2023-12-04T14:17:46;11.97;;;6.33;;
15317;SDS011;7759;52.528;13.346;2023-12-04T14:20:12;14.07;;;6.83;;
15317;SDS011;7759;52.528;13.346;2023-12-04T14:22:42;15.03;;;6.43;;
15317;SDS011;7759;52.528;13.346;2023-12-04T14:25:08;14.50;;;6.43;;
15317;SDS011;7759;52.528;13.346;2023-12-04T14:27:34;12.10;;;6.40;;
15317;SDS011;7759;52.528;13.346;2023-12-04T14:30:01;10.90;;;5.50;;